createdAt,value
2023-03-22T00:00:19.793Z,38.13
2023-03-22T00:05:22.365Z,48.60
2023-03-22T00:10:31.558Z,41.50
2023-03-22T00:15:33.992Z,44.13
2023-03-22T00:20:39.828Z,39.27
2023-03-22T00:25:44.658Z,41.03
2023-03-22T00:31:01.635Z,41.60
2023-03-22T00:36:10.459Z,39.10
2023-03-22T00:41:16.396Z,41.93
2023-03-22T00:46:21.870Z,39.67
2023-03-22T00:51:24.506Z,38.87
2023-03-22T00:56:28.797Z,39.97
2023-03-22T01:01:37.053Z,37.77
2023-03-22T01:06:39.568Z,39.97
2023-03-22T01:11:44.006Z,38.33
2023-03-22T01:16:47.269Z,40.37
2023-03-22T01:21:50.636Z,36.27
2023-03-22T01:26:53.136Z,42.03
2023-03-22T01:31:55.659Z,37.27
2023-03-22T01:36:58.069Z,37.07
2023-03-22T01:42:03.331Z,36.77
2023-03-22T01:47:09.217Z,34.53
2023-03-22T01:52:14.448Z,38.60
2023-03-22T01:57:28.513Z,35.67
2023-03-22T02:02:32.625Z,36.60
2023-03-22T02:07:46.374Z,35.07
2023-03-22T02:13:03.481Z,36.80
2023-03-22T02:18:45.833Z,36.83
2023-03-22T02:24:26.096Z,35.77
2023-03-22T02:29:54.283Z,38.40
2023-03-22T02:35:21.834Z,45.97
2023-03-22T02:40:56.351Z,36.00
2023-03-22T02:46:10.319Z,35.27
2023-03-22T02:51:23.235Z,36.67
2023-03-22T02:57:02.936Z,36.87
2023-03-22T03:02:08.500Z,39.43
2023-03-22T03:07:14.417Z,39.33
2023-03-22T03:12:26.044Z,38.67
2023-03-22T03:17:54.990Z,39.90
2023-03-22T03:23:15.917Z,38.43
2023-03-22T03:28:58.612Z,40.20
2023-03-22T03:34:18.056Z,40.90
2023-03-22T03:39:24.324Z,40.50
2023-03-22T03:44:30.527Z,40.23
2023-03-22T03:49:33.042Z,39.83
2023-03-22T03:54:35.640Z,39.43
2023-03-22T03:59:40.812Z,41.33
2023-03-22T04:04:53.008Z,37.43
2023-03-22T04:09:56.495Z,39.63
2023-03-22T04:15:03.707Z,37.40
2023-03-22T04:20:09.632Z,37.80
2023-03-22T04:25:14.283Z,41.80
2023-03-22T04:30:27.692Z,43.13
2023-03-22T04:35:48.449Z,47.23
2023-03-22T04:40:51.330Z,42.00
2023-03-22T04:46:14.380Z,43.90
2023-03-22T04:51:24.293Z,43.47
2023-03-22T04:56:47.027Z,37.63
2023-03-22T05:01:51.787Z,42.07
2023-03-22T05:06:58.197Z,37.43
2023-03-22T05:12:11.475Z,43.57
2023-03-22T05:17:26.204Z,38.63
2023-03-22T05:22:34.663Z,39.33
2023-03-22T05:27:41.749Z,33.37
2023-03-22T05:33:05.601Z,34.63
2023-03-22T05:38:13.590Z,38.03
2023-03-22T05:43:21.405Z,34.27
2023-03-22T05:48:26.108Z,33.07
2023-03-22T05:53:29.787Z,33.20
2023-03-22T05:58:37.418Z,33.40
2023-03-22T06:03:40.372Z,32.93
2023-03-22T06:09:04.274Z,35.90
2023-03-22T06:14:13.449Z,34.63
2023-03-22T06:19:41.730Z,31.13
2023-03-22T06:24:45.819Z,32.57
2023-03-22T06:29:54.930Z,31.00
2023-03-22T06:35:01.152Z,31.40
2023-03-22T06:40:05.371Z,32.13
2023-03-22T06:45:08.807Z,38.47
2023-03-22T06:50:15.562Z,36.33
2023-03-22T06:55:44.071Z,33.87
2023-03-22T07:00:50.815Z,33.23
2023-03-22T07:06:01.873Z,37.83
2023-03-22T07:11:10.051Z,33.00
2023-03-22T07:16:13.494Z,37.40
2023-03-22T07:21:20.913Z,35.83
2023-03-22T07:26:30.578Z,37.50
2023-03-22T07:31:36.608Z,39.63
2023-03-22T07:36:41.664Z,29.03
2023-03-22T07:41:46.589Z,29.03
2023-03-22T07:46:52.630Z,34.93
2023-03-22T07:51:59.105Z,32.03
2023-03-22T07:57:02.238Z,29.60
2023-03-22T08:02:04.957Z,40.03
2023-03-22T08:07:13.836Z,23.40
2023-03-22T08:12:17.559Z,23.67
2023-03-22T08:17:23.738Z,22.83
2023-03-22T08:22:29.825Z,24.20
2023-03-22T08:28:00.603Z,43.10
2023-03-22T08:33:03.357Z,27.37
2023-03-22T08:38:09.609Z,21.70
2023-03-22T08:43:19.753Z,22.97
2023-03-22T08:48:25.110Z,31.10
2023-03-22T08:53:53.769Z,21.57
2023-03-22T08:59:18.789Z,19.90
2023-03-22T09:04:47.789Z,18.50
2023-03-22T09:09:51.165Z,18.67
2023-03-22T09:14:55.758Z,16.37
2023-03-22T09:20:11.899Z,21.17
2023-03-22T09:25:17.380Z,18.87
2023-03-22T09:30:23.531Z,18.43
2023-03-22T09:35:26.463Z,16.53
2023-03-22T09:40:35.835Z,16.80
2023-03-22T09:45:49.570Z,14.43
2023-03-22T09:50:53.999Z,14.83
2023-03-22T09:55:59.868Z,13.27
2023-03-22T10:01:37.885Z,14.43
2023-03-22T10:06:46.086Z,12.23
2023-03-22T10:12:10.110Z,13.47
2023-03-22T10:17:17.192Z,13.63
2023-03-22T10:22:25.309Z,12.97
2023-03-22T10:27:31.877Z,13.47
2023-03-22T10:32:57.564Z,13.20
2023-03-22T10:38:03.970Z,13.70
2023-03-22T10:43:31.953Z,14.30
2023-03-22T10:48:39.484Z,13.03
2023-03-22T10:53:48.113Z,13.87
2023-03-22T10:58:51.659Z,13.30
2023-03-22T11:04:03.518Z,13.60
2023-03-22T11:09:20.437Z,13.70
2023-03-22T11:14:33.697Z,13.87
2023-03-22T11:19:53.119Z,13.93
2023-03-22T11:24:56.763Z,13.53
2023-03-22T11:30:09.568Z,16.13
2023-03-22T11:35:20.574Z,13.80
2023-03-22T11:40:29.962Z,14.53
2023-03-22T11:45:37.489Z,13.17
2023-03-22T11:50:42.704Z,14.93
2023-03-22T11:55:47.703Z,13.10
2023-03-22T12:00:52.580Z,12.70
2023-03-22T12:05:57.119Z,11.33
2023-03-22T12:11:07.293Z,14.30
2023-03-22T12:16:15.076Z,14.17
2023-03-22T12:21:18.343Z,13.47
2023-03-22T12:26:26.843Z,9.40
2023-03-22T12:31:45.033Z,14.30
2023-03-22T12:36:52.865Z,9.17
2023-03-22T12:42:02.654Z,9.30
2023-03-22T12:47:13.010Z,10.40
2023-03-22T12:52:21.176Z,9.33
2023-03-22T12:57:23.598Z,9.37
2023-03-22T13:02:33.036Z,10.27
2023-03-22T13:07:51.619Z,8.17
2023-03-22T13:13:22.130Z,8.13
2023-03-22T13:18:40.686Z,8.47
2023-03-22T13:23:55.213Z,9.33
2023-03-22T13:29:00.097Z,8.47
2023-03-22T13:34:04.192Z,10.23
2023-03-22T13:39:12.493Z,8.43
2023-03-22T13:44:26.767Z,8.63
2023-03-22T13:49:49.589Z,9.07
2023-03-22T13:54:55.933Z,7.23
2023-03-22T14:00:12.869Z,32.60
2023-03-22T14:05:22.459Z,76.00
2023-03-22T14:10:26.387Z,8.70
2023-03-22T14:15:32.606Z,65.87
2023-03-22T14:20:37.773Z,8.60
